Time;durP1;ratioP1;P1;durP2;ratioP2;P2;SDS_P1;SDS_P2;PMS_P1;PMS_P2;Temp;Humidity;BMP_temperature;BMP_pressure;BME280_temperature;BME280_humidity;BME280_pressure;Samples;Min_cycle;Max_cycle;Signal;HPM_P1;HPM_P2
2022/09/30 00:05:35;;;;;;;0.10;0.00;;;6.80;99.90;;;;;;21083252;28;20036;-54
2022/09/30 00:15:38;;;;;;;0.75;0.25;;;6.50;99.90;;;;;;21141185;28;20073;-50
2022/09/30 00:25:41;;;;;;;1.17;0.20;;;6.30;99.90;;;;;;21140525;28;20036;-53
2022/09/30 00:35:43;;;;;;;1.80;0.30;;;6.10;99.90;;;;;;21139842;28;20444;-49
2022/09/30 00:46:05;;;;;;;1.38;0.30;;;6.00;99.90;;;;;;21139925;28;20036;-52
2022/09/30 00:56:17;;;;;;;0.50;0.30;;;6.00;99.90;;;;;;21139573;28;20396;-52
2022/09/30 01:06:23;;;;;;;1.58;0.30;;;5.80;99.90;;;;;;21139016;28;20032;-54
2022/09/30 01:16:35;;;;;;;1.45;0.20;;;5.90;99.90;;;;;;21150541;28;20032;-53
2022/09/30 01:26:46;;;;;;;0.43;0.30;;;6.00;99.90;;;;;;21153114;28;20057;-54
2022/09/30 01:36:59;;;;;;;0.32;0.20;;;6.20;99.90;;;;;;21152281;28;20106;-53
2022/09/30 01:47:20;;;;;;;0.82;0.40;;;6.40;99.90;;;;;;21152131;28;20061;-53
2022/09/30 01:57:30;;;;;;;1.05;0.40;;;6.70;99.90;;;;;;21133938;28;20057;-52
2022/09/30 02:07:49;;;;;;;1.00;0.50;;;6.80;99.90;;;;;;21148699;28;20069;-50
2022/09/30 02:17:57;;;;;;;0.50;0.30;;;7.00;99.90;;;;;;21148854;28;20031;-52
2022/09/30 02:28:07;;;;;;;0.33;0.27;;;7.00;99.90;;;;;;21115254;28;20483;-53
2022/09/30 02:38:17;;;;;;;0.40;0.20;;;6.90;99.90;;;;;;21147006;28;20073;-54
2022/09/30 02:48:41;;;;;;;0.57;0.20;;;7.00;99.90;;;;;;21145405;28;20073;-56
2022/09/30 02:58:45;;;;;;;1.13;0.30;;;7.00;99.90;;;;;;21145874;28;20031;-50
2022/09/30 03:08:50;;;;;;;0.20;0.20;;;7.10;99.90;;;;;;21144745;28;20043;-54
2022/09/30 03:19:14;;;;;;;1.17;0.30;;;7.10;99.90;;;;;;21145314;28;20492;-53
2022/09/30 03:29:39;;;;;;;0.85;0.38;;;7.10;99.90;;;;;;21143928;28;20473;-51
2022/09/30 03:39:54;;;;;;;2.13;0.60;;;7.10;99.90;;;;;;21141985;28;20051;-53
2022/09/30 03:50:00;;;;;;;1.20;0.50;;;7.20;99.90;;;;;;21141942;28;20400;-53
2022/09/30 04:00:05;;;;;;;2.33;0.80;;;7.20;99.90;;;;;;21141834;28;20031;-53
2022/09/30 04:10:08;;;;;;;2.65;1.50;;;7.20;99.90;;;;;;21141166;28;20032;-53
2022/09/30 04:20:11;;;;;;;4.10;1.52;;;7.10;99.90;;;;;;21140705;28;20039;-54
2022/09/30 04:30:14;;;;;;;4.07;2.05;;;7.10;99.90;;;;;;21141230;28;20061;-54
2022/09/30 04:40:16;;;;;;;5.97;2.90;;;7.20;99.90;;;;;;21139922;28;20047;-52
2022/09/30 04:50:20;;;;;;;4.57;2.40;;;7.30;99.90;;;;;;21149964;28;20032;-54
2022/09/30 05:00:25;;;;;;;3.63;1.30;;;7.40;99.90;;;;;;21138176;28;20032;-53
2022/09/30 05:10:29;;;;;;;1.60;0.57;;;7.50;99.90;;;;;;21154347;28;20112;-54
2022/09/30 05:20:31;;;;;;;2.30;1.10;;;7.50;99.90;;;;;;21136805;28;20035;-54
2022/09/30 05:30:34;;;;;;;1.90;1.25;;;7.60;99.90;;;;;;21152086;28;20093;-52
2022/09/30 05:40:39;;;;;;;2.65;1.50;;;7.60;99.90;;;;;;21151992;28;20069;-51
2022/09/30 05:50:41;;;;;;;2.92;1.25;;;7.50;99.90;;;;;;21150928;28;20031;-53
2022/09/30 06:00:45;;;;;;;2.00;0.88;;;7.40;99.90;;;;;;21149916;28;20370;-50
2022/09/30 06:10:49;;;;;;;3.05;1.25;;;7.60;99.90;;;;;;21134481;28;20425;-54
2022/09/30 06:20:55;;;;;;;4.07;0.80;;;7.80;99.90;;;;;;21132064;28;20031;-54
2022/09/30 06:30:57;;;;;;;1.58;0.68;;;7.90;99.90;;;;;;21147142;28;20442;-52
2022/09/30 06:41:00;;;;;;;0.82;0.30;;;8.20;99.90;;;;;;21147200;28;20124;-52
2022/09/30 06:51:03;;;;;;;3.58;0.68;;;8.50;99.90;;;;;;21145987;28;20039;-53
2022/09/30 07:01:08;;;;;;;2.88;0.63;;;8.60;99.90;;;;;;21145828;28;20053;-55
2022/09/30 07:11:13;;;;;;;3.72;0.55;;;8.60;99.90;;;;;;21144686;28;20077;-60
2022/09/30 07:21:16;;;;;;;1.70;0.60;;;8.50;99.90;;;;;;21144132;28;20035;-52
2022/09/30 07:31:24;;;;;;;1.92;0.45;;;8.50;99.90;;;;;;21143909;28;20039;-54
2022/09/30 07:41:27;;;;;;;4.22;0.50;;;8.50;99.90;;;;;;21142610;28;20374;-54
2022/09/30 07:51:35;;;;;;;3.03;0.80;;;8.70;99.90;;;;;;21143954;28;20048;-61
2022/09/30 08:01:39;;;;;;;1.80;0.30;;;8.90;99.90;;;;;;21141869;28;20076;-61
2022/09/30 08:11:42;;;;;;;1.98;0.30;;;9.30;99.90;;;;;;21142395;28;20031;-52
2022/09/30 08:21:46;;;;;;;2.42;0.30;;;10.00;99.90;;;;;;21147428;28;20043;-52
2022/09/30 08:31:50;;;;;;;0.80;0.20;;;11.10;99.90;;;;;;21158124;28;20028;-53
2022/09/30 08:42:10;;;;;;;2.65;0.20;;;12.30;99.90;;;;;;21087307;28;20062;-51
2022/09/30 08:52:25;;;;;;;1.30;0.30;;;12.90;99.90;;;;;;21115496;28;20113;-59
2022/09/30 09:02:33;;;;;;;2.35;0.25;;;12.80;99.90;;;;;;21071021;28;20089;-59
2022/09/30 09:12:45;;;;;;;2.47;0.60;;;13.00;99.90;;;;;;21070471;28;20492;-52
2022/09/30 09:22:49;;;;;;;2.63;0.52;;;13.30;99.90;;;;;;21069502;28;20511;-50
2022/09/30 09:33:02;;;;;;;2.78;0.22;;;13.50;99.90;;;;;;21067766;28;20105;-50
2022/09/30 09:43:24;;;;;;;3.00;0.75;;;13.60;99.90;;;;;;21152291;28;20040;-49
2022/09/30 09:53:49;;;;;;;1.83;0.32;;;13.50;99.90;;;;;;21151319;28;20156;-58
2022/09/30 10:04:10;;;;;;;2.25;0.68;;;12.90;99.90;;;;;;21150236;28;20039;-49
2022/09/30 10:14:19;;;;;;;1.83;0.40;;;13.00;99.90;;;;;;21149884;28;20035;-51
2022/09/30 10:24:30;;;;;;;4.18;1.00;;;13.10;99.90;;;;;;21149189;28;20109;-49
2022/09/30 10:34:39;;;;;;;5.10;1.15;;;12.50;99.90;;;;;;21147596;28;20051;-51
2022/09/30 10:45:05;;;;;;;5.90;1.70;;;11.90;99.90;;;;;;21147010;28;20089;-51
2022/09/30 10:55:27;;;;;;;22.38;2.83;;;11.20;99.90;;;;;;21165778;28;20031;-49
2022/09/30 11:05:37;;;;;;;3.53;2.63;;;10.70;99.90;;;;;;21145107;28;20088;-50
2022/09/30 11:15:51;;;;;;;4.00;1.98;;;10.80;99.90;;;;;;21144666;28;20106;-49
2022/09/30 11:26:19;;;;;;;4.10;1.30;;;11.00;99.90;;;;;;21143773;28;20069;-51
2022/09/30 11:36:36;;;;;;;2.25;1.35;;;11.50;99.90;;;;;;21142942;28;20093;-50
2022/09/30 11:47:16;;;;;;;0.60;0.20;;;11.50;99.90;;;;;;21142826;28;20069;-52
2022/09/30 11:57:19;;;;;;;0.75;0.25;;;11.70;99.90;;;;;;21141314;28;20085;-52
2022/09/30 12:07:39;;;;;;;1.10;0.35;;;11.60;99.90;;;;;;21141345;28;20036;-51
2022/09/30 12:18:05;;;;;;;1.77;0.30;;;11.30;99.90;;;;;;21139142;28;20085;-49
2022/09/30 12:39:26;;;;;;;0.70;0.15;;;11.30;99.90;;;;;;21140166;28;20492;-49
2022/09/30 12:49:31;;;;;;;0.40;0.10;;;11.20;99.90;;;;;;21139388;28;20109;-53
2022/09/30 12:59:52;;;;;;;0.73;0.15;;;11.00;99.90;;;;;;21139723;28;20031;-51
2022/09/30 13:10:00;;;;;;;0.55;0.20;;;10.60;99.90;;;;;;21147447;28;20035;-51
2022/09/30 13:20:41;;;;;;;0.80;0.20;;;10.30;99.90;;;;;;21153921;28;20061;-50
2022/09/30 13:30:44;;;;;;;1.45;0.50;;;10.10;99.90;;;;;;21153257;28;20031;-60
2022/09/30 13:40:54;;;;;;;3.47;0.73;;;10.10;99.90;;;;;;21151906;28;20043;-60
2022/09/30 13:50:58;;;;;;;;;;;10.00;99.90;;;;;;21151623;28;20096;-59
2022/09/30 14:01:26;;;;;;;1.48;0.85;;;9.80;99.90;;;;;;21150811;28;19972;-59
2022/09/30 14:11:46;;;;;;;2.40;1.10;;;9.70;99.90;;;;;;21149721;28;20032;-53
2022/09/30 14:21:52;;;;;;;4.72;0.80;;;9.70;99.90;;;;;;21147652;28;20032;-55
2022/09/30 14:31:58;;;;;;;2.25;1.13;;;9.70;99.90;;;;;;21147898;28;20084;-52
2022/09/30 14:42:01;;;;;;;2.15;1.00;;;9.80;99.90;;;;;;21138075;28;20040;-50
2022/09/30 14:52:05;;;;;;;2.00;0.90;;;9.70;99.90;;;;;;21062512;28;20028;-54
2022/09/30 15:02:19;;;;;;;1.25;0.82;;;9.60;99.90;;;;;;21060876;28;20036;-51
2022/09/30 15:12:24;;;;;;;1.15;0.60;;;9.40;99.90;;;;;;21075138;28;20055;-52
2022/09/30 15:22:28;;;;;;;1.27;0.70;;;9.30;99.90;;;;;;21118280;28;20514;-51
2022/09/30 15:32:35;;;;;;;1.20;0.52;;;9.20;99.90;;;;;;21141848;28;20061;-52
2022/09/30 15:42:48;;;;;;;0.60;0.15;;;9.30;99.90;;;;;;21142319;28;20117;-51
2022/09/30 15:52:54;;;;;;;0.93;0.15;;;9.10;99.90;;;;;;21140916;28;20039;-60
2022/09/30 16:03:15;;;;;;;1.48;0.15;;;8.80;99.90;;;;;;21124197;28;20085;-52
2022/09/30 16:13:24;;;;;;;1.05;0.10;;;8.60;99.90;;;;;;21141091;28;20085;-53
2022/09/30 16:23:44;;;;;;;0.28;0.10;;;8.50;99.90;;;;;;21140329;28;20472;-51
2022/09/30 16:33:48;;;;;;;0.43;0.20;;;8.30;99.90;;;;;;21139429;28;20052;-52
2022/09/30 16:43:50;;;;;;;0.47;0.20;;;8.10;99.90;;;;;;21147133;28;20039;-51
2022/09/30 16:53:55;;;;;;;0.90;0.20;;;8.00;99.90;;;;;;21155207;28;20484;-54
2022/09/30 17:03:57;;;;;;;2.50;0.10;;;8.00;99.90;;;;;;21154326;28;20096;-52
2022/09/30 17:14:03;;;;;;;0.20;0.10;;;7.80;99.90;;;;;;21153938;28;20043;-51
2022/09/30 17:24:05;;;;;;;0.30;0.20;;;7.70;99.90;;;;;;21135619;28;20061;-51
2022/09/30 17:34:08;;;;;;;0.98;0.15;;;7.70;99.90;;;;;;21152593;28;20043;-49
2022/09/30 17:44:12;;;;;;;1.75;0.10;;;7.70;99.90;;;;;;21152276;28;20035;-59
2022/09/30 17:54:15;;;;;;;0.20;0.10;;;7.60;99.90;;;;;;21150295;28;20051;-49
2022/09/30 18:04:18;;;;;;;0.50;0.30;;;7.60;99.90;;;;;;21150417;28;20080;-50
2022/09/30 18:14:21;;;;;;;0.88;0.20;;;7.50;99.90;;;;;;21150159;28;20031;-52
2022/09/30 18:34:45;;;;;;;0.65;0.10;;;7.50;99.90;;;;;;21148003;28;20055;-52
2022/09/30 18:44:49;;;;;;;0.20;0.03;;;7.50;99.90;;;;;;21147375;28;20036;-51
2022/09/30 18:54:53;;;;;;;0.28;0.10;;;7.50;99.90;;;;;;21146374;28;20036;-51
2022/09/30 19:04:57;;;;;;;0.20;0.10;;;7.50;99.90;;;;;;21145320;28;20574;-51
2022/09/30 19:15:00;;;;;;;0.00;0.00;;;7.60;99.90;;;;;;21145010;28;20032;-49
2022/09/30 19:25:04;;;;;;;1.13;0.10;;;7.70;99.90;;;;;;21144018;28;20541;-52
2022/09/30 19:35:10;;;;;;;0.00;0.00;;;7.80;99.90;;;;;;21143431;28;20435;-51
2022/09/30 19:45:15;;;;;;;0.00;0.00;;;7.90;99.90;;;;;;21142880;28;20044;-52
2022/09/30 19:55:17;;;;;;;0.00;0.00;;;8.10;99.90;;;;;;21142041;28;20027;-51
2022/09/30 20:05:22;;;;;;;0.00;0.00;;;8.00;99.90;;;;;;21140950;28;20031;-59
2022/09/30 20:25:45;;;;;;;;;;;7.90;99.90;;;;;;21158578;28;20039;-55
2022/09/30 20:35:48;;;;;;;0.00;0.00;;;7.90;99.90;;;;;;21157171;28;19915;-49
2022/09/30 20:46:04;;;;;;;2.38;0.10;;;7.90;99.90;;;;;;21156394;28;20036;-59
2022/09/30 20:56:08;;;;;;;0.20;0.10;;;7.90;99.90;;;;;;21155603;28;20036;-49
2022/09/30 21:06:11;;;;;;;0.10;0.10;;;7.90;99.90;;;;;;21138102;28;20073;-49
2022/09/30 21:16:15;;;;;;;0.75;0.20;;;7.80;99.90;;;;;;21154293;28;20484;-51
2022/09/30 21:26:18;;;;;;;1.58;0.10;;;7.70;99.90;;;;;;21153162;28;20035;-52
2022/09/30 21:36:22;;;;;;;0.13;0.10;;;7.40;99.90;;;;;;21135734;28;20047;-50
2022/09/30 21:46:25;;;;;;;0.15;0.10;;;7.20;99.90;;;;;;21151488;28;20035;-47
2022/09/30 21:56:28;;;;;;;0.10;0.10;;;7.10;99.90;;;;;;21151637;28;20088;-47
2022/09/30 22:06:32;;;;;;;1.55;0.10;;;7.20;99.90;;;;;;21150329;28;20066;-48
2022/09/30 22:16:34;;;;;;;0.20;0.20;;;7.30;99.90;;;;;;21150341;28;20101;-49
2022/09/30 22:26:39;;;;;;;0.60;0.35;;;7.40;99.90;;;;;;21148953;28;20032;-51
2022/09/30 22:47:07;;;;;;;1.15;0.57;;;7.60;99.90;;;;;;21146913;28;20061;-49
2022/09/30 22:57:11;;;;;;;0.90;0.57;;;7.70;99.90;;;;;;21146570;28;20039;-48
2022/09/30 23:07:14;;;;;;;0.65;0.65;;;7.70;99.90;;;;;;21145546;28;20032;-50
2022/09/30 23:17:17;;;;;;;0.75;0.63;;;7.70;99.90;;;;;;21145500;28;20430;-60
2022/09/30 23:27:19;;;;;;;1.58;0.47;;;7.80;99.90;;;;;;21144022;28;20027;-54
2022/09/30 23:37:22;;;;;;;1.15;0.40;;;7.80;99.90;;;;;;21105570;28;20056;-60
2022/09/30 23:47:24;;;;;;;0.30;0.30;;;7.80;99.90;;;;;;21058946;28;20061;-49
2022/09/30 23:57:26;;;;;;;0.65;0.35;;;7.90;99.90;;;;;;21057558;28;20489;-51
